Search for airport 
image banner adimage banner adimage banner ad
image banner ad

0P2 - Shoestring Aviation Airfield

Located in Stewartstown, United States

ICAO - 0P2, IATA -

Data provided by Airmate  

General information

Coordinates: N39°47'47" W76°38'47"
Elevation is 1000 feet MSL.
Magnetic variation is -10° East
View others Airports in Pennsylvania

Operational data

Special qualification required
Current time UTC:
Current local time:
Weather at : KTHV - York ( 24 km )
METAR: KTHV 150553Z AUTO 00000KT 10SM SCT120 17/15 A2980 RMK AO2 SLP090 60000 T01720150 10211 20172 51004
View NOTAMs / SUP AIP / TFR affecting this airport [VIEW]
Communications frequencies: [VIEW]

Runways:

RWY identifierQFULength (ft)Width (ft)SurfaceLDA (ft)
06U53°1000100GRASS
24U233°1000100GRASS
151000100GRASS
331000100GRASS

Airport contact information

Address: Stewartstown United States

Satellite view of 0P2